createdAt,value
2018-05-27T00:01:51.029Z,20.04
2018-05-27T00:04:18.510Z,19.78
2018-05-27T00:06:46.007Z,19.80
2018-05-27T00:09:13.541Z,19.87
2018-05-27T00:11:41.058Z,19.79
2018-05-27T00:14:08.588Z,19.59
2018-05-27T00:16:36.092Z,19.71
2018-05-27T00:19:03.616Z,19.69
2018-05-27T00:21:31.108Z,19.52
2018-05-27T00:23:58.619Z,19.59
2018-05-27T00:26:26.169Z,19.55
2018-05-27T00:28:53.693Z,19.54
2018-05-27T00:31:21.249Z,19.47
2018-05-27T00:33:48.762Z,19.45
2018-05-27T00:36:16.268Z,19.07
2018-05-27T00:38:43.775Z,19.03
2018-05-27T00:41:11.291Z,18.98
2018-05-27T00:43:39.855Z,19.12
2018-05-27T00:46:07.360Z,19.14
2018-05-27T00:48:34.994Z,18.96
2018-05-27T00:51:02.514Z,18.97
2018-05-27T00:53:41.661Z,18.72
2018-05-27T00:56:09.223Z,18.81
2018-05-27T00:58:36.784Z,18.49
2018-05-27T01:01:04.334Z,18.56
2018-05-27T01:03:31.816Z,18.37
2018-05-27T01:05:59.327Z,18.25
2018-05-27T01:08:26.849Z,18.37
2018-05-27T01:10:55.402Z,18.50
2018-05-27T01:13:22.916Z,18.70
2018-05-27T01:15:50.473Z,18.63
2018-05-27T01:18:18.486Z,18.52
2018-05-27T01:20:46.004Z,18.59
2018-05-27T01:23:13.512Z,18.45
2018-05-27T01:25:41.024Z,18.31
2018-05-27T01:28:08.516Z,18.09
2018-05-27T01:30:36.032Z,18.12
2018-05-27T01:33:03.525Z,18.27
2018-05-27T01:35:31.129Z,18.32
2018-05-27T01:37:58.638Z,18.18
2018-05-27T01:40:26.145Z,18.42
2018-05-27T01:42:53.668Z,18.28
2018-05-27T01:45:21.176Z,18.12
2018-05-27T01:47:48.681Z,18.04
2018-05-27T01:50:16.169Z,18.02
2018-05-27T01:52:43.752Z,17.85
2018-05-27T01:55:11.228Z,18.02
2018-05-27T01:57:38.736Z,18.05
2018-05-27T02:00:06.266Z,17.63
2018-05-27T02:02:33.940Z,18.12
2018-05-27T02:05:01.425Z,18.04
2018-05-27T02:07:29.614Z,18.03
2018-05-27T02:09:57.117Z,18.12
2018-05-27T02:12:24.627Z,18.11
2018-05-27T02:14:52.141Z,18.10
2018-05-27T02:17:19.602Z,18.11
2018-05-27T02:19:47.076Z,17.93
2018-05-27T02:22:14.733Z,17.66
2018-05-27T02:24:42.205Z,17.61
2018-05-27T02:27:09.726Z,17.73
2018-05-27T02:29:38.356Z,17.71
2018-05-27T02:32:06.750Z,17.77
2018-05-27T02:34:34.252Z,17.66
2018-05-27T02:37:01.735Z,17.81
2018-05-27T02:39:31.153Z,17.70
2018-05-27T02:41:58.749Z,17.86
2018-05-27T02:44:26.260Z,17.74
2018-05-27T02:46:53.749Z,17.65
2018-05-27T02:49:21.280Z,17.71
2018-05-27T02:51:48.818Z,17.74
2018-05-27T02:54:16.321Z,17.74
2018-05-27T02:56:59.492Z,17.41
2018-05-27T02:59:27.089Z,17.58
2018-05-27T03:01:54.592Z,17.32
2018-05-27T03:04:22.073Z,17.50
2018-05-27T03:06:49.588Z,17.41
2018-05-27T03:09:17.216Z,17.52
2018-05-27T03:11:44.735Z,17.54
2018-05-27T03:14:12.239Z,17.39
2018-05-27T03:16:39.887Z,17.28
2018-05-27T03:19:07.393Z,17.54
2018-05-27T03:21:34.908Z,17.29
2018-05-27T03:24:02.415Z,17.02
2018-05-27T03:26:29.945Z,17.17
2018-05-27T03:28:57.451Z,17.38
2018-05-27T03:31:24.924Z,17.17
2018-05-27T03:33:52.429Z,17.40
2018-05-27T03:36:20.616Z,17.44
2018-05-27T03:38:48.117Z,17.31
2018-05-27T03:41:15.628Z,17.36
2018-05-27T03:43:43.262Z,17.37
2018-05-27T03:46:10.771Z,17.45
2018-05-27T03:48:38.668Z,17.37
2018-05-27T03:51:06.144Z,17.37
2018-05-27T03:53:33.759Z,17.01
2018-05-27T03:56:01.328Z,17.07
2018-05-27T03:58:29.786Z,16.85
2018-05-27T04:00:57.290Z,16.52
2018-05-27T04:03:24.767Z,16.62
2018-05-27T04:06:04.087Z,16.35
2018-05-27T04:08:39.212Z,16.29
2018-05-27T04:11:06.700Z,16.59
2018-05-27T04:13:34.193Z,16.49
2018-05-27T04:16:01.685Z,16.18
2018-05-27T04:18:29.293Z,16.23
2018-05-27T04:20:56.853Z,16.04
2018-05-27T04:23:24.382Z,16.00
2018-05-27T04:25:51.922Z,16.30
2018-05-27T04:28:19.545Z,16.15
2018-05-27T04:30:48.031Z,15.85
2018-05-27T04:33:15.531Z,15.96
2018-05-27T04:35:43.036Z,15.92
2018-05-27T04:38:10.600Z,16.11
2018-05-27T04:40:38.097Z,16.19
2018-05-27T04:43:05.593Z,15.92
2018-05-27T04:45:33.131Z,16.11
2018-05-27T04:48:00.661Z,16.44
2018-05-27T04:50:28.197Z,16.46
2018-05-27T04:52:55.700Z,16.26
2018-05-27T04:55:23.198Z,16.59
2018-05-27T04:57:50.674Z,16.60
2018-05-27T05:00:18.217Z,16.63
2018-05-27T05:02:45.710Z,16.71
2018-05-27T05:05:13.200Z,16.67
2018-05-27T05:07:40.706Z,16.39
2018-05-27T05:10:08.199Z,16.38
2018-05-27T05:12:35.725Z,16.79
2018-05-27T05:15:03.280Z,16.85
2018-05-27T05:20:04.700Z,16.89
2018-05-27T05:22:35.958Z,16.33
2018-05-27T05:25:03.476Z,16.51
2018-05-27T05:27:31.970Z,16.77
2018-05-27T05:30:01.067Z,16.63
2018-05-27T05:32:30.316Z,16.44
2018-05-27T05:34:57.805Z,16.58
2018-05-27T05:37:25.316Z,16.45
2018-05-27T05:39:52.877Z,16.73
2018-05-27T05:42:21.007Z,16.88
2018-05-27T05:44:49.132Z,16.45
2018-05-27T05:47:16.621Z,16.54
2018-05-27T05:49:44.148Z,16.63
2018-05-27T05:52:11.656Z,16.65
2018-05-27T05:54:39.319Z,16.41
2018-05-27T05:57:06.793Z,16.59
2018-05-27T05:59:34.268Z,16.46
2018-05-27T06:02:01.776Z,16.41
2018-05-27T06:04:29.401Z,16.69
2018-05-27T06:06:56.895Z,16.70
2018-05-27T06:09:24.375Z,16.79
2018-05-27T06:11:51.859Z,16.97
2018-05-27T06:14:19.396Z,16.90
2018-05-27T06:16:46.890Z,16.99
2018-05-27T06:19:14.424Z,16.88
2018-05-27T06:21:45.196Z,17.12
2018-05-27T06:24:12.684Z,17.26
2018-05-27T06:26:40.173Z,17.15
2018-05-27T06:29:07.653Z,17.26
2018-05-27T06:31:35.177Z,17.09
2018-05-27T06:34:02.660Z,17.13
2018-05-27T06:36:31.094Z,17.46
2018-05-27T06:38:59.593Z,17.44
2018-05-27T06:41:27.240Z,17.42
2018-05-27T06:43:55.833Z,17.38
2018-05-27T06:46:23.318Z,17.38
2018-05-27T06:48:50.838Z,17.34
2018-05-27T06:51:18.355Z,17.19
2018-05-27T06:53:45.838Z,17.23
2018-05-27T06:56:13.311Z,17.38
2018-05-27T06:58:40.824Z,17.62
2018-05-27T07:01:08.310Z,17.51
2018-05-27T07:03:35.825Z,17.51
2018-05-27T07:06:03.437Z,17.56
2018-05-27T07:08:31.717Z,17.64
2018-05-27T07:10:59.349Z,17.63
2018-05-27T07:13:26.860Z,17.65
2018-05-27T07:15:54.391Z,17.72
2018-05-27T07:18:21.886Z,17.98
2018-05-27T07:20:50.177Z,18.14
2018-05-27T07:23:17.656Z,18.08
2018-05-27T07:25:46.917Z,18.47
2018-05-27T07:28:14.558Z,18.53
2018-05-27T07:30:42.078Z,18.65
2018-05-27T07:33:09.700Z,18.33
2018-05-27T07:35:37.203Z,18.30
2018-05-27T07:38:04.688Z,18.41
2018-05-27T07:40:32.198Z,18.50
2018-05-27T07:42:59.738Z,18.43
2018-05-27T07:45:27.240Z,18.32
2018-05-27T07:47:54.720Z,18.39
2018-05-27T07:50:22.342Z,18.39
2018-05-27T07:52:49.808Z,18.56
2018-05-27T07:55:17.285Z,18.65
2018-05-27T07:57:44.810Z,18.41
2018-05-27T08:00:12.299Z,18.70
2018-05-27T08:02:39.881Z,18.62
2018-05-27T08:05:07.393Z,18.75
2018-05-27T08:07:34.860Z,18.82
2018-05-27T08:10:02.399Z,18.81
2018-05-27T08:12:29.926Z,18.83
2018-05-27T08:14:59.057Z,18.90
2018-05-27T08:17:26.578Z,18.94
2018-05-27T08:24:57.228Z,18.94
2018-05-27T08:27:26.630Z,18.93
2018-05-27T08:29:57.127Z,19.21
2018-05-27T08:32:28.284Z,19.19
2018-05-27T08:34:55.806Z,19.07
2018-05-27T08:37:23.304Z,19.18
2018-05-27T08:39:50.823Z,19.26
2018-05-27T08:42:18.314Z,19.20
2018-05-27T08:44:45.817Z,19.33
2018-05-27T08:47:13.340Z,19.30
2018-05-27T08:49:40.819Z,19.28
2018-05-27T08:52:08.668Z,19.35
2018-05-27T08:54:50.527Z,19.74
2018-05-27T08:57:18.063Z,19.52
2018-05-27T08:59:45.701Z,19.71
2018-05-27T09:02:13.212Z,19.78
2018-05-27T09:04:40.728Z,19.57
2018-05-27T09:07:08.208Z,19.75
2018-05-27T09:09:36.391Z,19.84
2018-05-27T09:12:04.013Z,20.14
2018-05-27T09:14:31.583Z,20.23
2018-05-27T09:16:59.113Z,20.02
2018-05-27T09:19:26.582Z,19.97
2018-05-27T09:21:54.081Z,20.29
2018-05-27T09:24:21.650Z,20.33
2018-05-27T09:26:49.180Z,20.20
2018-05-27T09:29:16.692Z,20.46
2018-05-27T09:31:44.180Z,20.49
2018-05-27T09:34:11.788Z,20.47
2018-05-27T09:36:39.280Z,20.50
2018-05-27T09:39:06.820Z,20.76
2018-05-27T09:41:34.356Z,20.66
2018-05-27T09:44:01.830Z,20.83
2018-05-27T09:46:30.299Z,20.80
2018-05-27T09:48:57.938Z,20.95
2018-05-27T09:51:25.467Z,20.80
2018-05-27T09:53:54.598Z,21.01
2018-05-27T09:56:22.083Z,21.09
2018-05-27T09:58:49.602Z,21.02
2018-05-27T10:01:17.068Z,20.90
2018-05-27T10:03:44.585Z,20.97
2018-05-27T10:06:12.096Z,21.07
2018-05-27T10:08:39.587Z,21.32
2018-05-27T10:11:07.100Z,21.07
2018-05-27T10:13:34.790Z,21.34
2018-05-27T10:16:02.345Z,21.48
2018-05-27T10:18:29.880Z,21.53
2018-05-27T10:20:57.365Z,21.20
2018-05-27T10:23:25.027Z,21.70
2018-05-27T10:25:52.551Z,21.69
2018-05-27T10:28:20.033Z,21.77
2018-05-27T10:30:47.558Z,21.69
2018-05-27T10:33:15.147Z,21.88
2018-05-27T10:35:42.638Z,21.74
2018-05-27T10:38:10.133Z,21.86
2018-05-27T10:40:38.471Z,21.80
2018-05-27T10:43:07.078Z,21.98
2018-05-27T10:45:35.474Z,21.90
2018-05-27T10:48:03.509Z,22.19
2018-05-27T10:50:31.022Z,21.94
2018-05-27T10:53:14.355Z,22.24
2018-05-27T10:55:41.973Z,22.18
2018-05-27T10:58:09.473Z,22.16
2018-05-27T11:00:36.989Z,21.87
2018-05-27T11:03:04.589Z,22.49
2018-05-27T11:05:32.934Z,22.43
2018-05-27T11:08:00.450Z,22.51
2018-05-27T11:10:27.948Z,22.44
2018-05-27T11:12:55.695Z,22.52
2018-05-27T11:15:23.193Z,22.47
2018-05-27T11:17:50.657Z,22.47
2018-05-27T11:20:18.151Z,22.80
2018-05-27T11:22:45.630Z,22.80
2018-05-27T11:25:13.164Z,22.71
2018-05-27T11:27:40.641Z,22.90
2018-05-27T11:30:08.154Z,23.22
2018-05-27T11:32:35.628Z,23.32
2018-05-27T11:35:03.174Z,23.31
2018-05-27T11:37:30.687Z,23.21
2018-05-27T11:39:58.178Z,23.22
2018-05-27T11:42:25.762Z,23.25
2018-05-27T11:44:53.284Z,23.18
2018-05-27T11:47:20.780Z,23.19
2018-05-27T11:57:11.837Z,23.51
2018-05-27T11:59:39.404Z,23.49
2018-05-27T12:02:07.021Z,23.57
2018-05-27T12:04:34.464Z,23.86
2018-05-27T12:07:01.964Z,23.57
2018-05-27T12:09:29.578Z,23.60
2018-05-27T12:11:57.025Z,23.96
2018-05-27T12:14:24.519Z,23.82
2018-05-27T12:16:52.393Z,23.87
2018-05-27T12:19:19.868Z,23.57
2018-05-27T12:21:47.372Z,23.99
2018-05-27T12:24:14.947Z,24.05
2018-05-27T12:26:42.497Z,24.17
2018-05-27T12:29:09.996Z,24.16
2018-05-27T12:31:37.476Z,24.35
2018-05-27T12:34:04.980Z,24.37
2018-05-27T12:36:32.567Z,24.45
2018-05-27T12:39:00.043Z,24.42
2018-05-27T12:41:27.551Z,24.03
2018-05-27T12:43:55.079Z,24.55
2018-05-27T12:46:22.665Z,24.38
2018-05-27T12:48:50.199Z,24.43
2018-05-27T12:51:20.396Z,24.53
2018-05-27T12:53:47.907Z,24.44
2018-05-27T12:56:15.411Z,24.66
2018-05-27T12:58:42.987Z,24.61
2018-05-27T13:01:10.469Z,24.67
2018-05-27T13:03:37.940Z,24.63
2018-05-27T13:06:05.475Z,24.53
2018-05-27T13:08:32.951Z,24.77
2018-05-27T13:11:00.560Z,24.72
2018-05-27T13:13:28.055Z,24.82
2018-05-27T13:15:55.552Z,24.99
2018-05-27T13:18:23.150Z,25.26
2018-05-27T13:20:50.629Z,25.16
2018-05-27T13:23:18.160Z,25.08
2018-05-27T13:25:45.630Z,25.00
2018-05-27T13:28:14.771Z,24.96
2018-05-27T13:30:42.238Z,25.20
2018-05-27T13:33:10.483Z,25.09
2018-05-27T13:35:40.091Z,25.23
2018-05-27T13:38:08.333Z,25.29
2018-05-27T13:40:36.207Z,25.15
2018-05-27T13:43:03.704Z,24.85
2018-05-27T13:45:33.146Z,25.01
2018-05-27T13:48:00.647Z,25.15
2018-05-27T13:50:35.464Z,25.35
2018-05-27T13:53:02.984Z,25.59
2018-05-27T13:55:30.692Z,25.36
2018-05-27T13:57:58.141Z,25.73
2018-05-27T14:02:59.416Z,25.64
2018-05-27T14:05:26.913Z,25.46
2018-05-27T14:07:54.406Z,25.38
2018-05-27T14:10:22.055Z,25.34
2018-05-27T14:12:49.726Z,25.48
2018-05-27T14:15:17.301Z,25.37
2018-05-27T14:17:44.859Z,25.73
2018-05-27T14:40:38.548Z,25.79
2018-05-27T14:44:41.483Z,25.85
2018-05-27T14:47:48.874Z,25.76
2018-05-27T14:53:30.189Z,25.59
2018-05-27T14:55:57.772Z,25.55
2018-05-27T14:58:28.766Z,25.72
2018-05-27T15:01:20.034Z,25.93
2018-05-27T15:06:48.677Z,26.00
2018-05-27T15:12:00.053Z,25.62
2018-05-27T15:14:27.589Z,25.94
2018-05-27T15:16:55.446Z,26.09
2018-05-27T15:19:23.789Z,26.28
2018-05-27T15:21:51.316Z,26.42
2018-05-27T15:24:19.218Z,26.23
2018-05-27T15:26:47.525Z,26.22
2018-05-27T15:29:14.986Z,26.44
2018-05-27T15:31:42.644Z,26.56
2018-05-27T15:34:10.150Z,26.43
2018-05-27T15:36:37.663Z,26.08
2018-05-27T15:39:05.955Z,26.07
2018-05-27T15:41:33.502Z,26.52
2018-05-27T15:44:10.635Z,26.28
2018-05-27T15:46:38.284Z,26.19
2018-05-27T15:49:05.768Z,26.40
2018-05-27T15:51:39.560Z,26.12
2018-05-27T15:54:10.662Z,26.41
2018-05-27T15:56:40.940Z,26.36
2018-05-27T15:59:13.799Z,26.10
2018-05-27T16:01:43.226Z,26.33
2018-05-27T16:04:11.995Z,26.12
2018-05-27T16:06:41.328Z,26.18
2018-05-27T16:09:11.037Z,26.15
2018-05-27T16:11:39.878Z,26.18
2018-05-27T16:14:18.947Z,26.13
2018-05-27T16:16:48.034Z,26.55
2018-05-27T16:19:23.659Z,26.29
2018-05-27T16:26:09.132Z,26.30
2018-05-27T16:28:36.617Z,26.46
2018-05-27T16:31:04.127Z,26.33
2018-05-27T16:33:31.655Z,26.44
2018-05-27T16:35:59.154Z,26.55
2018-05-27T16:38:28.543Z,26.61
2018-05-27T16:40:57.918Z,26.55
2018-05-27T16:43:25.972Z,26.34
2018-05-27T16:45:53.459Z,26.49
2018-05-27T16:48:20.977Z,26.71
2018-05-27T16:53:35.291Z,26.40
2018-05-27T16:56:02.825Z,26.45
2018-05-27T16:58:46.104Z,26.47
2018-05-27T17:01:14.474Z,26.63
2018-05-27T17:03:46.170Z,26.73
2018-05-27T17:06:13.715Z,26.79
2018-05-27T17:08:41.442Z,26.71
2018-05-27T17:11:12.894Z,26.73
2018-05-27T17:13:41.109Z,26.20
2018-05-27T17:16:10.849Z,26.26
2018-05-27T17:18:38.401Z,26.07
2018-05-27T17:23:39.786Z,26.03
2018-05-27T17:26:07.302Z,25.79
2018-05-27T17:28:39.030Z,25.92
2018-05-27T17:31:06.518Z,25.80
2018-05-27T17:33:34.000Z,25.70
2018-05-27T17:36:01.687Z,25.63
2018-05-27T17:38:29.208Z,25.60
2018-05-27T17:40:56.718Z,25.73
2018-05-27T17:43:24.200Z,25.61
2018-05-27T17:45:51.748Z,25.58
2018-05-27T17:48:19.301Z,25.48
2018-05-27T17:50:46.804Z,25.59
2018-05-27T17:53:14.311Z,25.58
2018-05-27T17:55:41.789Z,25.57
2018-05-27T17:58:09.386Z,25.18
2018-05-27T18:00:36.885Z,25.40
2018-05-27T18:03:04.419Z,25.47
2018-05-27T18:05:31.908Z,25.28
2018-05-27T18:07:59.377Z,25.17
2018-05-27T18:10:26.889Z,25.41
2018-05-27T18:12:54.385Z,25.41
2018-05-27T18:15:21.892Z,25.23
2018-05-27T18:17:49.448Z,24.86
2018-05-27T18:20:16.980Z,25.11
2018-05-27T18:22:44.525Z,25.11
2018-05-27T18:25:12.035Z,25.09
2018-05-27T18:27:39.541Z,25.02
2018-05-27T18:30:07.079Z,25.02
2018-05-27T18:32:34.572Z,25.00
2018-05-27T18:35:02.065Z,25.09
2018-05-27T18:37:29.982Z,24.64
2018-05-27T18:39:57.468Z,24.84
2018-05-27T18:42:24.977Z,24.77
2018-05-27T18:44:52.498Z,24.59
2018-05-27T18:47:20.041Z,24.34
2018-05-27T18:49:47.579Z,24.21
2018-05-27T18:52:15.130Z,24.53
2018-05-27T18:54:42.660Z,24.67
2018-05-27T18:57:10.198Z,24.59
2018-05-27T18:59:37.767Z,24.58
2018-05-27T19:02:05.329Z,24.45
2018-05-27T19:04:32.839Z,24.19
2018-05-27T19:07:00.419Z,24.15
2018-05-27T19:09:27.927Z,24.00
2018-05-27T19:11:55.472Z,24.08
2018-05-27T19:14:23.601Z,24.21
2018-05-27T19:16:51.149Z,23.79
2018-05-27T19:19:18.658Z,23.86
2018-05-27T19:21:46.160Z,24.12
2018-05-27T19:24:13.803Z,23.96
2018-05-27T19:26:41.351Z,24.27
2018-05-27T19:29:09.029Z,24.08
2018-05-27T19:31:36.532Z,23.75
2018-05-27T19:34:04.212Z,23.94
2018-05-27T19:36:31.738Z,23.80
2018-05-27T19:38:59.425Z,23.58
2018-05-27T19:41:27.793Z,23.78
2018-05-27T19:43:55.333Z,23.55
2018-05-27T19:46:22.847Z,23.70
2018-05-27T19:48:50.439Z,23.62
2018-05-27T19:51:18.707Z,23.31
2018-05-27T19:53:48.224Z,23.38
2018-05-27T20:25:47.196Z,23.04
2018-05-27T20:28:14.714Z,23.12
2018-05-27T20:30:42.243Z,22.98
2018-05-27T20:33:09.854Z,22.98
2018-05-27T20:35:37.409Z,23.11
2018-05-27T20:38:04.936Z,23.14
2018-05-27T20:40:32.442Z,23.04
2018-05-27T20:43:00.055Z,23.02
2018-05-27T20:45:27.563Z,23.03
2018-05-27T20:47:55.117Z,23.11
2018-05-27T20:50:22.639Z,23.07
2018-05-27T20:52:50.140Z,23.16
2018-05-27T20:55:18.013Z,23.11
2018-05-27T20:57:45.514Z,23.23
2018-05-27T21:00:13.008Z,22.99
2018-05-27T21:02:40.857Z,23.24
2018-05-27T21:05:08.372Z,23.26
2018-05-27T21:07:35.897Z,23.09
2018-05-27T21:10:03.396Z,22.89
2018-05-27T21:12:30.972Z,23.15
2018-05-27T21:14:58.788Z,23.15
2018-05-27T21:17:26.281Z,23.17
2018-05-27T21:19:53.947Z,23.09
2018-05-27T21:22:21.857Z,23.13
2018-05-27T21:24:49.372Z,23.18
2018-05-27T21:27:16.912Z,23.08
2018-05-27T21:29:44.416Z,23.14
2018-05-27T21:32:12.118Z,23.05
2018-05-27T21:34:39.636Z,22.99
2018-05-27T21:37:07.210Z,23.00
2018-05-27T21:39:34.706Z,22.96
2018-05-27T21:42:02.355Z,23.15
2018-05-27T21:44:29.861Z,23.10
2018-05-27T21:46:57.376Z,22.98
2018-05-27T21:49:24.935Z,23.07
2018-05-27T21:51:52.475Z,22.97
2018-05-27T21:54:20.032Z,22.75
2018-05-27T21:56:47.574Z,22.85
2018-05-27T21:59:15.179Z,22.90
2018-05-27T22:01:42.705Z,22.95
2018-05-27T22:04:10.237Z,22.86
2018-05-27T22:06:38.110Z,22.92
2018-05-27T22:09:05.656Z,22.75
2018-05-27T22:11:33.285Z,22.82
2018-05-27T22:14:00.831Z,22.91
2018-05-27T22:16:28.800Z,22.81
2018-05-27T22:18:56.310Z,22.75
2018-05-27T22:21:23.864Z,22.60
2018-05-27T22:23:51.427Z,22.73
2018-05-27T22:26:18.917Z,22.67
2018-05-27T22:28:46.393Z,22.48
2018-05-27T22:31:13.907Z,22.71
2018-05-27T22:33:41.401Z,22.67
2018-05-27T22:36:08.928Z,22.54
2018-05-27T22:38:36.476Z,22.58
2018-05-27T22:41:04.020Z,22.62
2018-05-27T22:43:31.553Z,22.60
2018-05-27T22:45:59.092Z,22.55
2018-05-27T22:48:26.645Z,22.53
2018-05-27T22:50:54.208Z,22.52
2018-05-27T22:53:21.753Z,22.65
2018-05-27T22:55:49.256Z,22.55
2018-05-27T22:58:16.878Z,22.58
2018-05-27T23:00:44.398Z,22.55
2018-05-27T23:03:11.992Z,22.50
2018-05-27T23:05:39.529Z,22.50
2018-05-27T23:08:07.039Z,22.62
2018-05-27T23:10:34.555Z,22.47
2018-05-27T23:13:02.045Z,22.50
2018-05-27T23:15:29.569Z,22.50
2018-05-27T23:17:57.130Z,22.50
2018-05-27T23:20:24.759Z,22.45
2018-05-27T23:22:52.282Z,22.21
2018-05-27T23:25:19.824Z,22.10
2018-05-27T23:27:47.521Z,22.20
2018-05-27T23:30:15.053Z,22.07
2018-05-27T23:32:42.594Z,22.16
2018-05-27T23:35:10.150Z,22.31
2018-05-27T23:37:37.742Z,22.29
2018-05-27T23:40:05.244Z,22.02
2018-05-27T23:42:32.798Z,22.27
2018-05-27T23:45:00.302Z,22.11
2018-05-27T23:47:27.863Z,22.25
2018-05-27T23:49:55.372Z,22.02
2018-05-27T23:52:23.083Z,22.12
2018-05-27T23:54:50.591Z,22.04
2018-05-27T23:57:18.067Z,22.08
2018-05-27T23:59:45.602Z,21.79
